Time;durP1;ratioP1;P1;durP2;ratioP2;P2;SDS_P1;SDS_P2;PMS_P1;PMS_P2;Temp;Humidity;BMP_temperature;BMP_pressure;BME280_temperature;BME280_humidity;BME280_pressure;Samples;Min_cycle;Max_cycle;Signal;HPM_P1;HPM_P2
2023/05/26 00:00:21;;;;;;;8.82;4.88;;;15.20;98.10;;;;;;5017406;28;20104;-59
2023/05/26 00:02:47;;;;;;;7.50;4.50;;;15.20;98.10;;;;;;5052419;28;20134;-59
2023/05/26 00:05:13;;;;;;;7.07;4.07;;;15.10;98.20;;;;;;5021904;28;20185;-58
2023/05/26 00:07:41;;;;;;;6.22;4.15;;;15.10;98.30;;;;;;5019252;28;20037;-59
2023/05/26 00:10:09;;;;;;;7.43;5.25;;;15.10;98.30;;;;;;5020063;28;20042;-58
2023/05/26 00:12:35;;;;;;;12.05;4.47;;;15.00;98.50;;;;;;5022415;28;20050;-59
2023/05/26 00:15:01;;;;;;;11.50;5.53;;;15.00;98.80;;;;;;5022723;28;20066;-59
2023/05/26 00:17:27;;;;;;;4.07;3.25;;;14.90;98.70;;;;;;5023111;28;20137;-59
2023/05/26 00:19:52;;;;;;;11.27;5.00;;;14.90;98.80;;;;;;5023008;28;20481;-59
2023/05/26 00:22:21;;;;;;;11.25;6.03;;;14.90;98.90;;;;;;5021494;28;20143;-59
2023/05/26 00:24:47;;;;;;;8.75;5.15;;;14.80;99.00;;;;;;5018132;28;20045;-59
2023/05/26 00:27:13;;;;;;;11.15;5.80;;;14.80;99.10;;;;;;5021303;28;20042;-59
2023/05/26 00:29:39;;;;;;;8.10;4.20;;;14.80;99.20;;;;;;5021156;28;20077;-59
2023/05/26 00:32:06;;;;;;;12.82;5.53;;;14.80;99.40;;;;;;5020167;28;20065;-59
2023/05/26 00:34:35;;;;;;;9.15;6.32;;;14.70;99.60;;;;;;5020327;28;20041;-60
2023/05/26 00:37:01;;;;;;;8.73;6.20;;;14.70;99.80;;;;;;5018341;28;20745;-58
2023/05/26 00:39:27;;;;;;;9.30;6.82;;;14.70;99.90;;;;;;5021697;28;20860;-59
2023/05/26 00:41:54;;;;;;;11.40;6.82;;;14.70;99.90;;;;;;5019333;28;20894;-59
2023/05/26 00:44:21;;;;;;;10.43;6.38;;;14.60;99.90;;;;;;5020792;28;20132;-59
2023/05/26 00:46:47;;;;;;;13.00;6.80;;;14.60;99.90;;;;;;5015806;28;20058;-58
2023/05/26 00:49:12;;;;;;;12.77;6.38;;;14.50;99.90;;;;;;5022308;28;20049;-58
2023/05/26 00:51:38;;;;;;;11.15;8.02;;;14.60;99.90;;;;;;5018621;28;20750;-59
2023/05/26 00:54:05;;;;;;;11.75;6.65;;;14.50;99.90;;;;;;5022052;28;20034;-58
2023/05/26 00:56:31;;;;;;;14.80;8.10;;;14.40;99.90;;;;;;5044322;28;20045;-59
2023/05/26 00:58:58;;;;;;;13.95;8.15;;;14.40;99.90;;;;;;5022222;28;20077;-59
2023/05/26 01:01:25;;;;;;;15.15;8.27;;;14.40;99.90;;;;;;5021835;28;20037;-59
2023/05/26 01:03:51;;;;;;;13.07;8.30;;;14.40;99.90;;;;;;5023441;28;20045;-59
2023/05/26 01:06:17;;;;;;;18.95;9.02;;;14.40;99.90;;;;;;5020814;28;20052;-59
2023/05/26 01:08:43;;;;;;;17.77;9.43;;;14.30;99.90;;;;;;5022593;28;20046;-58
2023/05/26 01:11:27;;;;;;;18.27;10.40;;;14.30;99.90;;;;;;5022771;28;20124;-59
2023/05/26 01:13:57;;;;;;;12.90;9.00;;;14.30;99.90;;;;;;5050422;28;20042;-59
2023/05/26 01:16:28;;;;;;;16.27;9.38;;;14.30;99.90;;;;;;5018722;28;20077;-58
2023/05/26 01:19:13;;;;;;;13.60;9.40;;;14.20;99.90;;;;;;5015851;28;20208;-59
2023/05/26 01:21:42;;;;;;;17.05;11.38;;;14.20;99.90;;;;;;5018448;28;20128;-58
2023/05/26 01:24:39;;;;;;;17.08;9.57;;;14.20;99.90;;;;;;5019318;28;20030;-58
2023/05/26 01:27:30;;;;;;;21.60;10.55;;;14.10;99.90;;;;;;5021909;28;20046;-59
2023/05/26 01:29:56;;;;;;;16.30;9.55;;;14.10;99.90;;;;;;5018862;28;20196;-59
2023/05/26 01:32:22;;;;;;;17.17;8.85;;;14.00;99.90;;;;;;5019258;28;20678;-59
2023/05/26 01:34:47;;;;;;;11.60;7.32;;;14.00;99.90;;;;;;5016187;28;20049;-59
2023/05/26 01:37:13;;;;;;;22.25;10.07;;;14.00;99.90;;;;;;5021592;28;20065;-60
2023/05/26 01:39:39;;;;;;;19.65;9.95;;;13.90;99.90;;;;;;5017923;28;20104;-59
2023/05/26 01:42:24;;;;;;;21.75;12.23;;;14.00;99.90;;;;;;5017549;28;20128;-58
2023/05/26 01:45:23;;;;;;;19.80;10.18;;;14.00;99.90;;;;;;5020242;28;20049;-59
2023/05/26 01:47:54;;;;;;;8.43;4.65;;;13.90;99.90;;;;;;5017546;28;20093;-58
2023/05/26 01:50:26;;;;;;;17.95;9.07;;;13.90;99.90;;;;;;5016761;28;20050;-59
2023/05/26 01:52:56;;;;;;;14.65;7.60;;;13.90;99.90;;;;;;5014969;28;20045;-59
2023/05/26 01:55:24;;;;;;;13.75;9.85;;;13.80;99.90;;;;;;5018167;28;20053;-58
2023/05/26 01:57:51;;;;;;;15.68;8.75;;;13.80;99.90;;;;;;5018935;28;20049;-59
2023/05/26 02:00:27;;;;;;;23.50;11.60;;;13.80;99.90;;;;;;5018205;28;20056;-58
2023/05/26 02:02:52;;;;;;;18.55;12.13;;;13.80;99.90;;;;;;5019337;28;20038;-58
2023/05/26 02:05:18;;;;;;;23.40;10.38;;;13.70;99.90;;;;;;5019358;28;20253;-58
2023/05/26 02:07:45;;;;;;;18.83;8.07;;;13.70;99.90;;;;;;5017192;28;20042;-59
2023/05/26 02:10:11;;;;;;;21.77;10.68;;;13.70;99.90;;;;;;5018780;28;20117;-58
2023/05/26 02:12:37;;;;;;;16.38;10.90;;;13.70;99.90;;;;;;5018418;28;20521;-59
2023/05/26 02:15:03;;;;;;;17.17;9.48;;;13.60;99.90;;;;;;5017135;28;20065;-59
2023/05/26 02:17:29;;;;;;;24.50;11.23;;;13.60;99.90;;;;;;5018546;28;20045;-60
2023/05/26 02:19:54;;;;;;;20.60;9.10;;;13.60;99.90;;;;;;5018507;28;20076;-59
2023/05/26 02:22:20;;;;;;;18.10;11.15;;;13.50;99.90;;;;;;5019313;28;20604;-59
2023/05/26 02:24:46;;;;;;;22.30;9.50;;;13.50;99.90;;;;;;5018754;28;20082;-58
2023/05/26 02:27:12;;;;;;;20.75;13.15;;;13.50;99.90;;;;;;5018998;28;20499;-58
2023/05/26 02:29:37;;;;;;;18.58;11.50;;;13.40;99.90;;;;;;5018309;28;20101;-60
2023/05/26 02:32:03;;;;;;;16.85;10.82;;;13.40;99.90;;;;;;5018378;28;20045;-59
2023/05/26 02:34:29;;;;;;;11.25;7.68;;;13.40;99.90;;;;;;5017108;28;20107;-59
2023/05/26 02:36:55;;;;;;;17.60;9.68;;;13.50;99.90;;;;;;5016900;28;20072;-58
2023/05/26 02:39:22;;;;;;;18.65;10.25;;;13.40;99.90;;;;;;5017117;28;20056;-58
2023/05/26 02:41:48;;;;;;;22.33;9.98;;;13.30;99.90;;;;;;5020703;28;20038;-58
2023/05/26 02:44:14;;;;;;;20.15;9.35;;;13.30;99.90;;;;;;5018222;28;20056;-59
2023/05/26 02:46:40;;;;;;;18.05;10.25;;;13.30;99.90;;;;;;5017960;28;20054;-59
2023/05/26 02:49:06;;;;;;;19.17;10.73;;;13.30;99.90;;;;;;5017139;28;20244;-59
2023/05/26 02:51:34;;;;;;;19.33;10.10;;;13.30;99.90;;;;;;5018319;28;20252;-58
2023/05/26 02:53:59;;;;;;;17.45;9.05;;;13.30;99.90;;;;;;5018467;28;20045;-59
2023/05/26 02:56:25;;;;;;;25.00;9.85;;;13.20;99.90;;;;;;5017364;28;20041;-58
2023/05/26 02:58:51;;;;;;;18.65;9.40;;;13.20;99.90;;;;;;5018333;28;20165;-59
2023/05/26 03:01:17;;;;;;;20.83;9.38;;;13.10;99.90;;;;;;5018136;28;20081;-59
2023/05/26 03:03:42;;;;;;;24.52;11.50;;;13.10;99.90;;;;;;5019434;28;20605;-58
2023/05/26 03:06:08;;;;;;;19.05;9.55;;;13.20;99.90;;;;;;5019185;28;20511;-59
2023/05/26 03:08:37;;;;;;;27.77;11.73;;;13.10;99.90;;;;;;5021347;28;20091;-59
2023/05/26 03:11:03;;;;;;;20.05;9.18;;;13.10;99.90;;;;;;5018950;28;20093;-58
2023/05/26 03:13:28;;;;;;;19.25;10.48;;;13.10;99.90;;;;;;5006735;28;20037;-59
2023/05/26 03:15:54;;;;;;;22.83;7.45;;;13.10;99.90;;;;;;5020698;28;20071;-59
2023/05/26 03:18:20;;;;;;;19.85;9.82;;;13.00;99.90;;;;;;5021883;28;21180;-59
2023/05/26 03:20:46;;;;;;;21.05;9.73;;;13.00;99.90;;;;;;5018577;28;20069;-58
2023/05/26 03:23:18;;;;;;;16.65;9.63;;;13.00;99.90;;;;;;5024903;28;20042;-59
2023/05/26 03:25:45;;;;;;;17.42;10.05;;;13.00;99.90;;;;;;5022594;28;20061;-59
2023/05/26 03:28:10;;;;;;;18.80;9.43;;;13.00;99.90;;;;;;5020784;28;20131;-59
2023/05/26 03:30:36;;;;;;;21.35;8.65;;;13.00;99.90;;;;;;5021250;28;20622;-58
2023/05/26 03:33:02;;;;;;;14.48;8.25;;;13.00;99.90;;;;;;5023218;28;20041;-59
2023/05/26 03:35:28;;;;;;;17.58;8.45;;;12.90;99.90;;;;;;5047453;28;20079;-59
2023/05/26 03:37:53;;;;;;;21.17;9.65;;;12.90;99.90;;;;;;5020103;28;20053;-58
2023/05/26 03:40:19;;;;;;;20.08;9.45;;;12.90;99.90;;;;;;5020597;28;20053;-59
2023/05/26 03:42:45;;;;;;;19.52;8.90;;;12.80;99.90;;;;;;5019648;28;20598;-59
2023/05/26 03:45:15;;;;;;;20.38;9.18;;;12.80;99.90;;;;;;5021642;28;20144;-59
2023/05/26 03:47:41;;;;;;;19.85;7.90;;;12.80;99.90;;;;;;5020097;28;20536;-58
2023/05/26 03:50:07;;;;;;;18.70;8.40;;;12.80;99.90;;;;;;5020848;28;20535;-59
2023/05/26 03:52:33;;;;;;;20.90;10.70;;;12.70;99.90;;;;;;5019335;28;20050;-58
2023/05/26 03:54:58;;;;;;;16.92;7.30;;;12.70;99.90;;;;;;5023605;28;20046;-58
2023/05/26 03:57:24;;;;;;;22.88;8.55;;;12.70;99.90;;;;;;5021539;28;20315;-59
2023/05/26 03:59:50;;;;;;;17.30;8.43;;;12.60;99.90;;;;;;5018411;28;20536;-58
2023/05/26 04:02:16;;;;;;;17.35;7.95;;;12.60;99.90;;;;;;5020521;28;20634;-59
2023/05/26 04:04:42;;;;;;;22.55;9.77;;;12.60;99.90;;;;;;5022555;28;20046;-58
2023/05/26 04:07:08;;;;;;;16.38;9.13;;;12.70;99.90;;;;;;5019086;28;20054;-59
2023/05/26 04:09:34;;;;;;;20.52;7.63;;;12.60;99.90;;;;;;5022332;28;20870;-58
2023/05/26 04:12:00;;;;;;;20.25;9.15;;;12.60;99.90;;;;;;5021875;28;20060;-58
2023/05/26 04:14:26;;;;;;;17.67;10.13;;;12.60;99.90;;;;;;5020158;28;20096;-58
2023/05/26 04:16:52;;;;;;;28.17;10.27;;;12.50;99.90;;;;;;5017640;28;20200;-58
2023/05/26 04:19:18;;;;;;;25.85;8.43;;;12.50;99.90;;;;;;5024804;28;20033;-59
2023/05/26 04:21:44;;;;;;;18.23;8.40;;;12.50;99.90;;;;;;5019822;28;20053;-59
2023/05/26 04:24:09;;;;;;;14.02;7.07;;;12.50;99.90;;;;;;5019974;28;20045;-58
2023/05/26 04:26:35;;;;;;;23.75;9.32;;;12.50;99.90;;;;;;5019371;28;20500;-59
2023/05/26 04:29:01;;;;;;;20.17;7.95;;;12.50;99.90;;;;;;5021936;28;20148;-59
2023/05/26 04:31:30;;;;;;;20.33;9.05;;;12.50;99.90;;;;;;5020235;28;20053;-58
2023/05/26 04:33:57;;;;;;;21.80;9.52;;;12.50;99.90;;;;;;5018493;28;20940;-58
2023/05/26 04:36:23;;;;;;;15.80;6.07;;;12.50;99.90;;;;;;5020754;28;20046;-59
2023/05/26 04:38:49;;;;;;;12.18;6.15;;;12.50;99.90;;;;;;5019470;28;20188;-58
2023/05/26 04:41:16;;;;;;;14.25;7.72;;;12.50;99.90;;;;;;5018275;28;20042;-60
2023/05/26 04:43:43;;;;;;;18.33;8.02;;;12.50;99.90;;;;;;5023013;28;20053;-58
2023/05/26 04:46:10;;;;;;;15.93;6.78;;;12.40;99.90;;;;;;5019621;28;20610;-58
2023/05/26 04:48:37;;;;;;;20.83;7.60;;;12.40;99.90;;;;;;5018788;28;20568;-59
2023/05/26 04:51:03;;;;;;;23.90;8.35;;;12.40;99.90;;;;;;5022828;28;20058;-58
2023/05/26 04:53:29;;;;;;;18.75;8.18;;;12.30;99.90;;;;;;5019450;28;20042;-58
2023/05/26 04:56:00;;;;;;;22.13;6.55;;;12.40;99.90;;;;;;5018623;28;21150;-58
2023/05/26 04:58:25;;;;;;;18.23;7.18;;;12.40;99.90;;;;;;5018995;28;20072;-58
2023/05/26 05:00:51;;;;;;;23.90;8.40;;;12.30;99.90;;;;;;5022095;28;20053;-59
2023/05/26 05:03:17;;;;;;;23.02;7.28;;;12.40;99.90;;;;;;5024677;28;20053;-59
2023/05/26 05:05:42;;;;;;;16.50;7.25;;;12.40;99.90;;;;;;5019651;28;20082;-59
2023/05/26 05:08:09;;;;;;;14.05;5.38;;;12.40;99.90;;;;;;5016837;28;20041;-59
2023/05/26 05:10:35;;;;;;;16.60;6.25;;;12.30;99.90;;;;;;5020814;28;20037;-58
2023/05/26 05:13:00;;;;;;;12.23;4.93;;;12.30;99.90;;;;;;5018614;28;20104;-58
2023/05/26 05:15:26;;;;;;;21.88;8.93;;;12.30;99.90;;;;;;5022300;28;20103;-59
2023/05/26 05:17:52;;;;;;;22.38;7.18;;;12.30;99.90;;;;;;5021992;28;20160;-58
2023/05/26 05:20:18;;;;;;;16.55;7.05;;;12.40;99.90;;;;;;5016816;28;21843;-59
2023/05/26 05:22:44;;;;;;;16.98;9.02;;;12.30;99.90;;;;;;5016296;28;20094;-59
2023/05/26 05:25:10;;;;;;;11.93;5.93;;;12.40;99.90;;;;;;5018303;28;20524;-59
2023/05/26 05:27:35;;;;;;;26.30;7.95;;;12.40;99.90;;;;;;5018251;28;20128;-58
2023/05/26 05:30:01;;;;;;;15.40;6.80;;;12.40;99.90;;;;;;5018634;28;20515;-58
2023/05/26 05:32:27;;;;;;;19.90;7.60;;;12.40;99.90;;;;;;5015819;28;20587;-58
2023/05/26 05:34:52;;;;;;;12.73;5.60;;;12.40;99.90;;;;;;5016864;28;20081;-58
2023/05/26 05:37:18;;;;;;;17.30;6.40;;;12.40;99.90;;;;;;5014810;28;20042;-58
2023/05/26 05:39:44;;;;;;;23.00;8.15;;;12.40;99.90;;;;;;5004885;28;20152;-59
2023/05/26 05:42:10;;;;;;;19.65;6.38;;;12.40;99.90;;;;;;5015860;28;20524;-59
2023/05/26 05:44:36;;;;;;;18.30;7.05;;;12.50;99.90;;;;;;5023705;28;20045;-58
2023/05/26 05:47:02;;;;;;;14.70;4.68;;;12.40;99.90;;;;;;5021816;28;20052;-58
2023/05/26 05:49:27;;;;;;;18.90;7.07;;;12.40;99.90;;;;;;5018736;28;20511;-58
2023/05/26 05:51:53;;;;;;;16.75;5.43;;;12.40;99.90;;;;;;5020626;28;20236;-58
2023/05/26 05:54:19;;;;;;;17.08;6.68;;;12.40;99.90;;;;;;5021518;28;20041;-58
2023/05/26 05:56:44;;;;;;;14.82;5.47;;;12.40;99.90;;;;;;5012340;28;20509;-61
2023/05/26 05:59:10;;;;;;;17.17;8.73;;;12.40;99.90;;;;;;5015572;28;20488;-58
2023/05/26 06:01:36;;;;;;;16.02;5.18;;;12.50;99.90;;;;;;5016218;28;20561;-58
2023/05/26 06:04:02;;;;;;;20.30;7.30;;;12.50;99.90;;;;;;5048084;28;20049;-58
2023/05/26 06:06:28;;;;;;;14.95;7.80;;;12.50;99.90;;;;;;5016263;28;20044;-59
2023/05/26 06:08:54;;;;;;;15.80;6.32;;;12.50;99.90;;;;;;5015293;28;20539;-58
2023/05/26 06:11:21;;;;;;;19.67;7.68;;;12.50;99.90;;;;;;5017794;28;20089;-58
2023/05/26 06:13:46;;;;;;;15.27;7.70;;;12.60;99.90;;;;;;5014562;28;20035;-58
2023/05/26 06:16:13;;;;;;;17.80;6.38;;;12.60;99.90;;;;;;5015523;28;20045;-58
2023/05/26 06:18:38;;;;;;;23.42;6.40;;;12.60;99.90;;;;;;5011681;28;20046;-58
2023/05/26 06:21:04;;;;;;;17.13;8.73;;;12.60;99.90;;;;;;5015559;28;20107;-58
2023/05/26 06:23:30;;;;;;;15.32;5.20;;;12.60;99.90;;;;;;5015017;28;20053;-58
2023/05/26 06:25:56;;;;;;;21.83;8.27;;;12.60;99.90;;;;;;5020337;28;20044;-58
2023/05/26 06:28:22;;;;;;;26.40;8.30;;;12.60;99.90;;;;;;5022738;28;20042;-58
2023/05/26 06:30:48;;;;;;;17.13;5.45;;;12.60;99.90;;;;;;5020354;28;20136;-58
2023/05/26 06:33:14;;;;;;;21.85;7.85;;;12.70;99.90;;;;;;5021777;28;20136;-58
2023/05/26 06:35:40;;;;;;;28.38;8.85;;;12.70;99.90;;;;;;5018216;28;20181;-58
2023/05/26 06:38:05;;;;;;;16.58;7.10;;;12.80;99.90;;;;;;5020530;28;20119;-58
2023/05/26 06:40:31;;;;;;;23.67;7.65;;;12.80;99.90;;;;;;5021180;28;20466;-58
2023/05/26 06:42:57;;;;;;;19.02;7.18;;;12.80;99.90;;;;;;5019922;28;20787;-58
2023/05/26 06:45:22;;;;;;;20.23;7.35;;;12.80;99.90;;;;;;5021877;28;20062;-59
2023/05/26 06:47:48;;;;;;;16.35;6.32;;;12.90;99.90;;;;;;5022898;28;20038;-59
2023/05/26 06:50:14;;;;;;;9.10;3.80;;;12.90;99.90;;;;;;5022161;28;20042;-58
2023/05/26 06:52:39;;;;;;;16.02;8.77;;;12.80;99.90;;;;;;5021750;28;20050;-58
2023/05/26 06:55:06;;;;;;;21.25;6.60;;;12.80;99.90;;;;;;5020534;28;20053;-58
2023/05/26 06:57:31;;;;;;;19.15;6.45;;;12.90;99.90;;;;;;5023195;28;20045;-58
2023/05/26 06:59:57;;;;;;;9.30;4.78;;;12.90;99.90;;;;;;5023886;28;20042;-58
2023/05/26 07:02:23;;;;;;;17.08;7.18;;;12.90;99.90;;;;;;5019513;28;20539;-58
2023/05/26 07:04:49;;;;;;;16.13;7.57;;;12.90;99.90;;;;;;5023896;28;20404;-59
2023/05/26 07:07:15;;;;;;;17.33;6.50;;;13.00;99.90;;;;;;5023886;28;20037;-58
2023/05/26 07:09:40;;;;;;;25.80;7.75;;;13.00;99.90;;;;;;5022860;28;20042;-59
2023/05/26 07:12:06;;;;;;;15.60;7.25;;;13.10;99.90;;;;;;5023957;28;20053;-58
2023/05/26 07:14:32;;;;;;;20.10;6.72;;;13.10;99.90;;;;;;5023096;28;20049;-59
2023/05/26 07:16:57;;;;;;;20.65;8.82;;;13.20;99.90;;;;;;5023087;28;20034;-58
2023/05/26 07:19:23;;;;;;;34.22;10.90;;;13.30;99.90;;;;;;5021888;28;20129;-58
2023/05/26 07:21:49;;;;;;;22.90;7.40;;;13.20;99.90;;;;;;5022018;28;20507;-58
2023/05/26 07:24:15;;;;;;;15.85;5.28;;;13.30;99.90;;;;;;5019185;28;20049;-58
2023/05/26 07:26:40;;;;;;;17.92;7.15;;;13.30;99.90;;;;;;5022360;28;20123;-58
2023/05/26 07:29:06;;;;;;;20.58;8.07;;;13.30;99.90;;;;;;5022232;28;20053;-59
2023/05/26 07:31:32;;;;;;;13.05;7.10;;;13.40;99.90;;;;;;5022342;28;20049;-58
2023/05/26 07:33:57;;;;;;;25.42;10.00;;;13.40;99.90;;;;;;5022332;28;20105;-59
2023/05/26 07:36:23;;;;;;;12.65;7.22;;;13.50;99.90;;;;;;5022436;28;20042;-58
2023/05/26 07:38:49;;;;;;;23.23;7.75;;;13.60;99.90;;;;;;5021688;28;20180;-58
2023/05/26 07:41:15;;;;;;;16.52;7.43;;;13.60;99.90;;;;;;5021928;28;20532;-58
2023/05/26 07:43:41;;;;;;;19.33;9.15;;;13.70;99.90;;;;;;5022997;28;20500;-58
2023/05/26 07:46:06;;;;;;;25.58;8.70;;;13.70;99.90;;;;;;5022081;28;20058;-59
2023/05/26 07:48:32;;;;;;;23.70;7.75;;;13.70;99.90;;;;;;5021916;28;21169;-58
2023/05/26 07:50:58;;;;;;;16.17;7.55;;;13.80;99.90;;;;;;5015087;28;20487;-58
2023/05/26 07:53:23;;;;;;;28.50;8.60;;;13.80;99.90;;;;;;5021538;28;20055;-59
2023/05/26 07:55:49;;;;;;;20.58;8.43;;;13.80;99.90;;;;;;5022642;28;20033;-58
2023/05/26 07:58:15;;;;;;;11.38;5.45;;;13.90;99.90;;;;;;5021472;28;21074;-59
2023/05/26 08:00:41;;;;;;;17.05;8.45;;;13.90;99.90;;;;;;5022177;28;20084;-58
2023/05/26 08:03:07;;;;;;;24.98;7.85;;;14.00;99.90;;;;;;5017557;28;20053;-58
2023/05/26 08:05:33;;;;;;;18.83;8.98;;;14.00;99.90;;;;;;5021599;28;20095;-58
2023/05/26 08:07:59;;;;;;;17.70;7.13;;;14.00;99.90;;;;;;5022746;28;20523;-58
2023/05/26 08:10:25;;;;;;;22.42;7.90;;;14.10;99.90;;;;;;5018802;28;20062;-58
2023/05/26 08:12:52;;;;;;;17.05;6.47;;;14.10;99.90;;;;;;5017724;28;20048;-59
2023/05/26 08:15:20;;;;;;;24.80;8.85;;;14.20;99.90;;;;;;5021340;28;20491;-58
2023/05/26 08:17:47;;;;;;;22.60;8.20;;;14.20;99.90;;;;;;5021190;28;20042;-58
2023/05/26 08:20:13;;;;;;;28.88;6.95;;;14.20;99.90;;;;;;5020624;28;20777;-58
2023/05/26 08:22:38;;;;;;;24.73;9.85;;;14.30;99.90;;;;;;5019546;28;20323;-58
2023/05/26 08:25:04;;;;;;;21.10;9.20;;;14.30;99.90;;;;;;5022623;28;20124;-58
2023/05/26 08:27:30;;;;;;;17.50;8.15;;;14.30;99.90;;;;;;5022965;28;20048;-58
2023/05/26 08:29:56;;;;;;;24.75;8.13;;;14.40;99.90;;;;;;5020970;28;20539;-58
2023/05/26 08:32:23;;;;;;;15.35;6.95;;;14.40;99.90;;;;;;5020795;28;20046;-59
2023/05/26 08:34:49;;;;;;;19.17;9.20;;;14.50;99.90;;;;;;5018002;28;20045;-58
2023/05/26 08:37:16;;;;;;;28.35;8.95;;;14.50;99.90;;;;;;5016619;28;20514;-58
2023/05/26 08:39:42;;;;;;;30.25;10.38;;;14.50;99.90;;;;;;5022000;28;20123;-58
2023/05/26 08:42:14;;;;;;;21.75;7.28;;;14.60;99.90;;;;;;5017652;28;20042;-60
2023/05/26 08:44:40;;;;;;;27.38;10.30;;;14.60;99.90;;;;;;5021822;28;20042;-58
2023/05/26 08:47:10;;;;;;;11.27;6.65;;;14.70;99.90;;;;;;5021616;28;20456;-59
2023/05/26 08:49:41;;;;;;;16.35;7.85;;;14.70;99.90;;;;;;5019903;28;20135;-57
2023/05/26 08:52:13;;;;;;;15.07;7.28;;;14.70;99.90;;;;;;5020368;28;20044;-57
2023/05/26 08:54:39;;;;;;;24.65;7.35;;;14.80;99.90;;;;;;5024485;28;20491;-58
2023/05/26 08:57:06;;;;;;;20.25;8.68;;;14.80;99.90;;;;;;5024082;28;20157;-58
2023/05/26 08:59:32;;;;;;;22.15;8.80;;;14.80;99.90;;;;;;5025644;28;20050;-57
2023/05/26 09:01:58;;;;;;;24.52;9.45;;;14.90;99.90;;;;;;5025397;28;20061;-58
2023/05/26 09:04:25;;;;;;;16.52;7.50;;;14.90;99.90;;;;;;5024215;28;20071;-57
2023/05/26 09:06:51;;;;;;;21.35;8.02;;;15.00;99.90;;;;;;5023693;28;20046;-58
2023/05/26 09:09:17;;;;;;;22.15;7.80;;;15.00;99.90;;;;;;5025631;28;20050;-58
2023/05/26 09:11:44;;;;;;;16.85;7.72;;;15.00;99.90;;;;;;5025656;28;20041;-58
2023/05/26 09:14:14;;;;;;;21.05;7.80;;;15.10;99.90;;;;;;5025034;28;20041;-57
2023/05/26 09:16:40;;;;;;;16.65;8.27;;;15.20;99.90;;;;;;5008302;28;20046;-57
2023/05/26 09:19:06;;;;;;;32.35;8.95;;;15.20;99.90;;;;;;5023515;28;20045;-57
2023/05/26 09:21:32;;;;;;;16.27;8.15;;;15.20;99.90;;;;;;5025393;28;20042;-58
2023/05/26 09:23:59;;;;;;;22.10;9.73;;;15.30;99.90;;;;;;5022628;28;20456;-57
2023/05/26 09:26:34;;;;;;;26.63;9.20;;;15.30;99.90;;;;;;5024712;28;20038;-58
2023/05/26 09:29:01;;;;;;;18.63;8.48;;;15.30;99.90;;;;;;5024752;28;20037;-58
2023/05/26 09:31:47;;;;;;;19.58;7.80;;;15.40;99.90;;;;;;5024408;28;20053;-58
2023/05/26 09:34:15;;;;;;;20.27;7.45;;;15.40;99.90;;;;;;5022628;28;20042;-58
2023/05/26 09:36:41;;;;;;;22.23;7.30;;;15.50;99.90;;;;;;5023982;28;20107;-58
2023/05/26 09:39:12;;;;;;;19.50;7.60;;;15.50;99.90;;;;;;5025395;28;20042;-57
2023/05/26 09:41:44;;;;;;;21.45;8.75;;;15.50;99.90;;;;;;5022921;28;20165;-58
2023/05/26 09:44:18;;;;;;;19.30;7.18;;;15.60;99.90;;;;;;5023408;28;20038;-58
2023/05/26 09:46:45;;;;;;;20.20;9.45;;;15.70;99.90;;;;;;5023603;28;20599;-58
2023/05/26 09:49:16;;;;;;;16.10;6.82;;;15.70;99.90;;;;;;5024527;28;20179;-57
2023/05/26 09:51:43;;;;;;;14.57;6.85;;;15.70;99.90;;;;;;5021439;28;20536;-57
2023/05/26 09:54:09;;;;;;;15.40;6.63;;;15.80;99.90;;;;;;5023524;28;20046;-58
2023/05/26 09:56:41;;;;;;;24.17;7.90;;;15.90;99.90;;;;;;5021248;28;20045;-58
2023/05/26 09:59:09;;;;;;;17.75;7.25;;;15.90;99.90;;;;;;5024297;28;20050;-58
2023/05/26 10:01:37;;;;;;;18.02;8.40;;;15.90;99.90;;;;;;5025397;28;20122;-58
2023/05/26 10:04:06;;;;;;;15.07;7.03;;;16.00;99.90;;;;;;5022738;28;20561;-58
2023/05/26 10:06:35;;;;;;;17.08;7.07;;;16.00;99.90;;;;;;5024041;28;20128;-58
2023/05/26 10:09:06;;;;;;;15.80;8.00;;;16.10;99.90;;;;;;5022992;28;20077;-58
2023/05/26 10:11:39;;;;;;;17.38;7.97;;;16.10;99.90;;;;;;5024537;28;20343;-58
2023/05/26 10:14:05;;;;;;;10.02;4.07;;;16.10;99.90;;;;;;5023980;28;20178;-58
2023/05/26 10:16:32;;;;;;;20.20;8.23;;;16.20;99.90;;;;;;5025117;28;20053;-58
2023/05/26 10:18:58;;;;;;;27.95;8.15;;;16.20;99.90;;;;;;5024024;28;20037;-58
2023/05/26 10:21:31;;;;;;;17.13;7.63;;;16.20;99.90;;;;;;5026837;28;20669;-58
2023/05/26 10:24:28;;;;;;;13.25;5.25;;;16.30;99.90;;;;;;5025097;28;20042;-58
2023/05/26 10:27:13;;;;;;;17.13;7.28;;;16.30;99.90;;;;;;5024467;28;20058;-57
2023/05/26 10:29:53;;;;;;;15.07;5.82;;;16.40;99.90;;;;;;5024545;28;20057;-58
2023/05/26 10:32:52;;;;;;;14.93;7.38;;;16.50;99.90;;;;;;5015511;28;20052;-58
2023/05/26 10:35:31;;;;;;;16.45;8.38;;;16.50;99.90;;;;;;4994591;28;20123;-58
2023/05/26 10:38:03;;;;;;;14.65;7.47;;;16.60;99.90;;;;;;5022865;28;20042;-57
2023/05/26 10:40:47;;;;;;;;;;;16.60;99.90;;;;;;5020472;28;20559;-58
2023/05/26 10:43:20;;;;;;;15.00;5.53;;;16.70;99.90;;;;;;5018148;28;20610;-57
2023/05/26 10:45:46;;;;;;;14.15;6.75;;;16.70;99.90;;;;;;5020688;28;20060;-58
2023/05/26 10:48:12;;;;;;;18.48;7.47;;;16.70;99.90;;;;;;5020882;28;20057;-58
2023/05/26 10:50:58;;;;;;;14.10;7.30;;;16.80;99.90;;;;;;5024070;28;20038;-62
2023/05/26 10:53:25;;;;;;;11.85;6.55;;;16.90;99.90;;;;;;5022644;28;20038;-57
2023/05/26 10:55:58;;;;;;;13.98;7.88;;;16.90;99.90;;;;;;5020058;28;20099;-59
2023/05/26 10:58:27;;;;;;;14.40;7.78;;;17.00;99.90;;;;;;5022315;28;20452;-58
2023/05/26 11:01:00;;;;;;;14.35;8.32;;;17.00;99.90;;;;;;5020485;28;20048;-58
2023/05/26 11:03:46;;;;;;;14.82;6.85;;;17.00;99.90;;;;;;5023945;28;20103;-58
2023/05/26 11:06:17;;;;;;;12.27;7.88;;;17.00;99.90;;;;;;5022000;28;20530;-59
2023/05/26 11:08:50;;;;;;;11.07;5.82;;;17.10;99.90;;;;;;5021566;28;20053;-58
2023/05/26 11:11:30;;;;;;;14.00;6.15;;;17.20;99.90;;;;;;5021211;28;20046;-58
2023/05/26 11:14:09;;;;;;;13.88;7.43;;;17.20;99.90;;;;;;5021240;28;20050;-58
2023/05/26 11:16:38;;;;;;;15.35;7.97;;;17.30;99.90;;;;;;5019543;28;20178;-59
2023/05/26 11:19:05;;;;;;;15.43;6.35;;;17.20;99.90;;;;;;5021061;28;20072;-58
2023/05/26 11:21:33;;;;;;;9.95;4.75;;;17.30;99.90;;;;;;5017703;28;20828;-58
2023/05/26 11:24:00;;;;;;;11.75;6.55;;;17.40;99.90;;;;;;5018098;28;20344;-59
2023/05/26 11:26:27;;;;;;;17.73;8.35;;;17.40;99.90;;;;;;5021322;28;20575;-58
2023/05/26 11:28:54;;;;;;;14.93;7.05;;;17.50;99.90;;;;;;5018697;27;20520;-59
2023/05/26 11:31:22;;;;;;;16.02;6.78;;;17.60;99.90;;;;;;5022117;28;20052;-58
2023/05/26 11:33:48;;;;;;;20.02;6.50;;;17.60;99.90;;;;;;5020268;28;20056;-59
2023/05/26 11:36:19;;;;;;;15.45;6.20;;;17.60;99.90;;;;;;5022344;28;20073;-59
2023/05/26 11:38:47;;;;;;;11.30;5.53;;;17.60;99.90;;;;;;5023485;28;20129;-58
2023/05/26 11:41:17;;;;;;;13.38;6.68;;;17.50;99.90;;;;;;5021848;28;20050;-59
2023/05/26 11:43:46;;;;;;;14.77;7.10;;;17.60;99.90;;;;;;5025606;28;20045;-59
2023/05/26 11:46:15;;;;;;;13.82;5.72;;;17.80;99.90;;;;;;5021713;28;20522;-58
2023/05/26 11:48:42;;;;;;;13.20;7.25;;;17.80;99.90;;;;;;5024168;28;20136;-59
2023/05/26 11:51:17;;;;;;;11.63;6.10;;;17.80;99.90;;;;;;5025257;28;20172;-61
2023/05/26 11:53:45;;;;;;;13.60;6.97;;;17.90;99.90;;;;;;5025018;28;20053;-58
2023/05/26 11:56:15;;;;;;;12.27;5.32;;;17.90;99.90;;;;;;5020026;28;20508;-58
2023/05/26 11:58:53;;;;;;;16.10;6.50;;;17.90;99.90;;;;;;5022718;28;20038;-58
2023/05/26 12:01:21;;;;;;;14.82;7.30;;;17.90;99.90;;;;;;5020956;28;20045;-59
2023/05/26 12:03:49;;;;;;;13.50;6.82;;;18.00;99.90;;;;;;5021636;28;20050;-59
2023/05/26 12:06:25;;;;;;;18.70;6.72;;;18.00;99.90;;;;;;5023408;28;20100;-57
2023/05/26 12:09:02;;;;;;;10.60;6.35;;;18.10;99.90;;;;;;5020137;28;20080;-57
2023/05/26 12:11:33;;;;;;;18.63;7.30;;;18.20;99.90;;;;;;5023176;28;20092;-57
2023/05/26 12:14:10;;;;;;;14.82;6.03;;;18.20;99.90;;;;;;5021186;28;21214;-57
2023/05/26 12:16:37;;;;;;;39.88;10.57;;;18.20;99.90;;;;;;5023854;28;20588;-57
2023/05/26 12:19:06;;;;;;;15.07;7.00;;;18.20;99.90;;;;;;5023643;28;21095;-58
2023/05/26 12:21:44;;;;;;;20.52;8.50;;;18.30;99.90;;;;;;5050436;28;20435;-57
2023/05/26 12:24:10;;;;;;;13.43;5.57;;;18.30;99.90;;;;;;5020982;28;20555;-57
2023/05/26 12:26:36;;;;;;;13.35;7.25;;;18.30;99.90;;;;;;5023251;28;20066;-57
2023/05/26 12:29:12;;;;;;;13.18;6.07;;;18.30;99.90;;;;;;5023592;28;20551;-57
2023/05/26 12:31:42;;;;;;;13.73;6.47;;;18.40;99.90;;;;;;5052356;28;20045;-57
2023/05/26 12:34:10;;;;;;;16.10;6.82;;;18.50;99.90;;;;;;5022808;28;20060;-57
2023/05/26 12:36:36;;;;;;;15.07;6.55;;;18.40;99.90;;;;;;5024588;28;20125;-58
2023/05/26 12:39:03;;;;;;;16.83;6.78;;;18.50;99.90;;;;;;5025632;28;20046;-58